createdAt,value
2022-10-28T00:01:03.502Z,6.47
2022-10-28T00:03:30.024Z,6.38
2022-10-28T00:06:08.135Z,5.47
2022-10-28T00:08:35.004Z,6.30
2022-10-28T00:11:10.821Z,6.65
2022-10-28T00:13:37.910Z,5.75
2022-10-28T00:16:09.711Z,6.03
2022-10-28T00:18:36.474Z,6.32
2022-10-28T00:21:05.298Z,7.03
2022-10-28T00:23:31.855Z,6.55
2022-10-28T00:26:08.703Z,6.65
2022-10-28T00:28:35.759Z,6.70
2022-10-28T00:31:07.322Z,7.57
2022-10-28T00:33:35.428Z,6.97
2022-10-28T00:36:20.157Z,6.97
2022-10-28T00:38:48.630Z,6.78
2022-10-28T00:41:23.524Z,6.40
2022-10-28T00:43:52.090Z,6.63
2022-10-28T00:46:18.564Z,6.88
2022-10-28T00:48:47.981Z,6.45
2022-10-28T00:51:15.753Z,6.20
2022-10-28T00:53:43.364Z,5.95
2022-10-28T00:56:10.214Z,5.70
2022-10-28T00:58:36.859Z,5.80
2022-10-28T01:01:03.533Z,5.93
2022-10-28T01:03:30.087Z,5.68
2022-10-28T01:05:57.712Z,5.05
2022-10-28T01:08:24.234Z,5.22
2022-10-28T01:11:07.439Z,6.13
2022-10-28T01:13:52.597Z,5.43
2022-10-28T01:16:53.115Z,4.75
2022-10-28T01:19:28.676Z,7.15
2022-10-28T01:22:15.950Z,6.07
2022-10-28T01:25:13.914Z,6.70
2022-10-28T01:28:17.983Z,5.53
2022-10-28T01:31:11.974Z,6.25
2022-10-28T01:34:10.807Z,5.72
2022-10-28T01:37:02.372Z,5.78
2022-10-28T01:39:38.542Z,5.57
2022-10-28T01:42:14.514Z,5.90
2022-10-28T01:44:48.442Z,5.45
2022-10-28T01:47:21.201Z,6.15
2022-10-28T01:50:02.715Z,5.47
2022-10-28T01:52:30.551Z,6.85
2022-10-28T01:55:04.900Z,6.00
2022-10-28T01:57:33.173Z,5.60
2022-10-28T02:00:00.779Z,6.38
2022-10-28T02:02:32.396Z,6.38
2022-10-28T02:05:36.641Z,6.20
2022-10-28T02:08:20.294Z,6.03
2022-10-28T02:11:06.601Z,6.18
2022-10-28T02:13:49.288Z,6.10
2022-10-28T02:16:28.534Z,5.68
2022-10-28T02:19:29.229Z,6.32
2022-10-28T02:22:14.118Z,6.57
2022-10-28T02:25:05.433Z,5.60
2022-10-28T02:27:41.388Z,5.78
2022-10-28T02:30:09.960Z,5.63
2022-10-28T02:32:40.390Z,5.45
2022-10-28T02:35:14.519Z,5.47
2022-10-28T02:37:42.325Z,4.82
2022-10-28T02:40:12.890Z,5.60
2022-10-28T02:43:01.099Z,5.60
2022-10-28T02:45:39.674Z,5.30
2022-10-28T02:48:45.614Z,5.90
2022-10-28T02:51:19.066Z,5.13
2022-10-28T02:54:06.305Z,4.43
2022-10-28T02:56:37.836Z,5.05
2022-10-28T02:59:09.278Z,5.03
2022-10-28T03:01:35.822Z,4.57
2022-10-28T03:04:03.233Z,5.10
2022-10-28T03:06:29.853Z,5.40
2022-10-28T03:08:56.340Z,5.75
2022-10-28T03:11:22.896Z,5.82
2022-10-28T03:13:49.415Z,5.10
2022-10-28T03:16:15.886Z,5.25
2022-10-28T03:18:42.907Z,4.88
2022-10-28T03:21:09.433Z,5.38
2022-10-28T03:23:35.915Z,4.60
2022-10-28T03:26:02.416Z,5.50
2022-10-28T03:28:28.909Z,5.63
2022-10-28T03:30:55.434Z,5.40
2022-10-28T03:33:21.921Z,5.05
2022-10-28T03:35:48.438Z,5.72
2022-10-28T03:38:14.902Z,4.85
2022-10-28T03:40:41.392Z,5.10
2022-10-28T03:43:07.906Z,5.45
2022-10-28T03:45:34.398Z,5.13
2022-10-28T03:48:00.884Z,5.30
2022-10-28T03:50:27.473Z,5.43
2022-10-28T03:52:53.919Z,5.00
2022-10-28T03:55:20.489Z,5.22
2022-10-28T03:57:47.087Z,5.30
2022-10-28T04:00:14.682Z,5.65
2022-10-28T04:02:41.633Z,5.00
2022-10-28T04:05:12.145Z,5.18
2022-10-28T04:07:40.974Z,4.97
2022-10-28T04:10:07.745Z,4.85
2022-10-28T04:12:34.276Z,5.50
2022-10-28T04:15:00.777Z,5.18
2022-10-28T04:17:27.221Z,5.65
2022-10-28T04:19:54.237Z,5.03
2022-10-28T04:22:25.398Z,4.68
2022-10-28T04:24:54.501Z,5.18
2022-10-28T04:27:21.498Z,5.90
2022-10-28T04:29:48.029Z,5.18
2022-10-28T04:32:14.775Z,5.65
2022-10-28T04:34:41.381Z,5.47
2022-10-28T04:37:07.946Z,5.10
2022-10-28T04:39:34.440Z,5.03
2022-10-28T04:42:00.946Z,5.38
2022-10-28T04:44:27.581Z,5.50
2022-10-28T04:46:56.475Z,5.10
2022-10-28T04:49:22.929Z,5.03
2022-10-28T04:51:49.478Z,5.20
2022-10-28T04:54:15.975Z,5.45
2022-10-28T04:56:42.504Z,5.00
2022-10-28T04:59:08.978Z,5.43
2022-10-28T05:01:36.186Z,5.53
2022-10-28T05:04:02.848Z,5.38
2022-10-28T05:06:29.422Z,5.03
2022-10-28T05:08:56.242Z,5.72
2022-10-28T05:11:22.733Z,5.95
2022-10-28T05:13:49.267Z,5.85
2022-10-28T05:16:15.941Z,5.85
2022-10-28T05:18:42.428Z,5.72
2022-10-28T05:21:08.908Z,5.75
2022-10-28T05:23:35.576Z,5.50
2022-10-28T05:26:02.151Z,6.00
2022-10-28T05:28:28.643Z,6.45
2022-10-28T05:30:55.200Z,5.68
2022-10-28T05:33:21.767Z,6.03
2022-10-28T05:35:48.333Z,5.45
2022-10-28T05:38:14.864Z,5.90
2022-10-28T05:40:41.325Z,6.50
2022-10-28T05:43:09.436Z,6.10
2022-10-28T05:45:36.523Z,6.43
2022-10-28T05:48:03.048Z,5.70
2022-10-28T05:50:29.721Z,6.93
2022-10-28T05:52:57.269Z,5.57
2022-10-28T05:55:28.170Z,6.50
2022-10-28T05:57:55.680Z,5.70
2022-10-28T06:00:24.621Z,5.93
2022-10-28T06:02:51.413Z,5.72
2022-10-28T06:05:18.235Z,5.97
2022-10-28T06:07:44.850Z,6.40
2022-10-28T06:10:11.666Z,5.80
2022-10-28T06:12:36.738Z,5.50
2022-10-28T06:15:03.760Z,5.55
2022-10-28T06:17:30.273Z,5.55
2022-10-28T06:19:56.746Z,5.43
2022-10-28T06:22:23.294Z,5.07
2022-10-28T06:24:49.771Z,5.00
2022-10-28T06:27:16.239Z,4.57
2022-10-28T06:29:42.810Z,5.47
2022-10-28T06:32:09.622Z,5.40
2022-10-28T06:34:37.850Z,5.70
2022-10-28T06:37:09.332Z,4.82
2022-10-28T06:39:38.219Z,5.28
2022-10-28T06:42:04.777Z,4.97
2022-10-28T06:44:31.260Z,4.40
2022-10-28T06:46:59.243Z,5.30
2022-10-28T06:49:25.747Z,4.80
2022-10-28T06:51:52.249Z,4.45
2022-10-28T06:54:18.729Z,4.95
2022-10-28T06:56:47.531Z,5.07
2022-10-28T06:59:14.007Z,4.93
2022-10-28T07:01:40.617Z,4.43
2022-10-28T07:04:11.122Z,5.32
2022-10-28T07:06:37.583Z,5.53
2022-10-28T07:09:04.155Z,6.05
2022-10-28T07:11:33.768Z,6.43
2022-10-28T07:14:03.190Z,6.68
2022-10-28T07:16:29.743Z,6.40
2022-10-28T07:18:56.316Z,6.28
2022-10-28T07:21:28.385Z,6.82
2022-10-28T07:23:56.215Z,6.35
2022-10-28T07:26:23.370Z,6.60
2022-10-28T07:28:50.161Z,6.47
2022-10-28T07:31:17.257Z,6.28
2022-10-28T07:38:48.972Z,6.65
2022-10-28T07:41:15.485Z,6.20
2022-10-28T07:43:41.995Z,6.15
2022-10-28T07:46:08.557Z,6.47
2022-10-28T07:48:36.365Z,6.15
2022-10-28T07:51:07.651Z,5.40
2022-10-28T07:53:34.635Z,5.70
2022-10-28T07:56:03.288Z,4.93
2022-10-28T07:58:30.076Z,5.10
2022-10-28T08:00:56.819Z,4.72
2022-10-28T08:03:31.191Z,5.38
2022-10-28T08:06:17.556Z,5.32
2022-10-28T08:08:45.802Z,5.30
2022-10-28T08:11:13.722Z,4.90
2022-10-28T08:13:40.583Z,5.55
2022-10-28T08:16:08.194Z,4.93
2022-10-28T08:18:35.838Z,5.40
2022-10-28T08:21:03.023Z,5.15
2022-10-28T08:23:29.741Z,5.78
2022-10-28T08:25:56.631Z,5.65
2022-10-28T08:28:24.215Z,5.93
2022-10-28T08:33:18.487Z,6.75
2022-10-28T08:35:51.588Z,5.93
2022-10-28T08:38:18.380Z,6.18
2022-10-28T08:41:00.647Z,6.43
2022-10-28T08:43:46.203Z,5.45
2022-10-28T08:48:52.731Z,6.35
2022-10-28T08:51:36.720Z,5.70
2022-10-28T08:54:14.193Z,6.20
2022-10-28T08:56:47.491Z,7.03
2022-10-28T08:59:19.212Z,6.47
2022-10-28T09:01:52.301Z,6.03
2022-10-28T09:04:22.042Z,6.53
2022-10-28T09:06:48.618Z,5.97
2022-10-28T09:09:20.015Z,6.38
2022-10-28T09:12:23.306Z,5.38
2022-10-28T09:15:14.654Z,5.63
2022-10-28T09:17:53.337Z,5.00
2022-10-28T09:20:26.010Z,5.30
2022-10-28T09:22:57.177Z,5.00
2022-10-28T09:25:31.218Z,4.57
2022-10-28T09:28:13.218Z,4.47
2022-10-28T09:30:55.291Z,4.72
2022-10-28T09:33:35.955Z,5.57
2022-10-28T09:36:04.372Z,5.40
2022-10-28T09:38:33.776Z,5.45
2022-10-28T09:41:07.768Z,5.15
2022-10-28T09:43:37.411Z,4.68
2022-10-28T09:46:08.812Z,4.40
2022-10-28T09:48:41.597Z,5.57
2022-10-28T09:51:20.021Z,4.68
2022-10-28T09:53:57.478Z,4.47
2022-10-28T09:56:25.278Z,4.68
2022-10-28T09:58:53.196Z,5.05
2022-10-28T10:01:20.334Z,4.70
2022-10-28T10:03:51.409Z,4.90
2022-10-28T10:06:22.518Z,4.70
2022-10-28T10:08:49.070Z,4.97
2022-10-28T10:11:32.624Z,4.47
2022-10-28T10:14:00.426Z,4.97
2022-10-28T10:16:39.965Z,5.00
2022-10-28T10:19:08.234Z,4.45
2022-10-28T10:21:52.207Z,5.07
2022-10-28T10:24:37.006Z,4.78
2022-10-28T10:27:09.650Z,5.10
2022-10-28T10:29:37.187Z,5.05
2022-10-28T10:32:23.259Z,5.32
2022-10-28T10:35:15.261Z,4.80
2022-10-28T10:37:43.441Z,5.07
2022-10-28T10:40:31.224Z,6.00
2022-10-28T10:43:17.350Z,5.65
2022-10-28T10:46:00.645Z,5.03
2022-10-28T10:48:29.016Z,5.05
2022-10-28T10:50:55.793Z,5.38
2022-10-28T10:53:31.059Z,4.60
2022-10-28T10:56:04.907Z,5.20
2022-10-28T10:58:34.896Z,4.53
2022-10-28T11:01:04.721Z,4.80
2022-10-28T11:03:38.419Z,5.40
2022-10-28T11:06:24.412Z,4.93
2022-10-28T11:08:56.457Z,5.43
2022-10-28T11:11:23.588Z,5.35
2022-10-28T11:14:03.529Z,5.03
2022-10-28T11:16:30.069Z,4.40
2022-10-28T11:18:56.613Z,4.75
2022-10-28T11:21:59.281Z,4.70
2022-10-28T11:24:28.649Z,5.05
2022-10-28T11:27:13.857Z,5.07
2022-10-28T11:29:40.815Z,4.65
2022-10-28T11:32:16.445Z,4.38
2022-10-28T11:34:44.109Z,4.60
2022-10-28T11:37:23.128Z,4.78
2022-10-28T11:40:19.628Z,4.20
2022-10-28T11:43:06.426Z,4.60
2022-10-28T11:45:32.885Z,4.32
2022-10-28T11:48:46.675Z,4.10
2022-10-28T11:51:31.780Z,3.75
2022-10-28T11:54:16.454Z,4.20
2022-10-28T11:56:48.881Z,4.88
2022-10-28T11:59:32.554Z,4.38
2022-10-28T12:02:05.146Z,4.47
2022-10-28T12:04:43.633Z,4.70
2022-10-28T12:07:25.216Z,4.18
2022-10-28T12:10:07.759Z,4.32
2022-10-28T12:12:48.656Z,4.03
2022-10-28T12:15:27.646Z,4.15
2022-10-28T12:18:06.092Z,4.40
2022-10-28T12:20:55.867Z,4.22
2022-10-28T12:23:23.831Z,4.43
2022-10-28T12:25:54.978Z,3.97
2022-10-28T12:28:37.724Z,4.50
2022-10-28T12:31:16.295Z,4.30
2022-10-28T12:33:46.703Z,4.68
2022-10-28T12:36:23.708Z,4.80
2022-10-28T12:38:57.719Z,4.13
2022-10-28T12:41:43.015Z,4.30
2022-10-28T12:44:16.919Z,4.50
2022-10-28T12:47:05.434Z,4.53
2022-10-28T12:49:37.572Z,4.45
2022-10-28T12:52:26.627Z,4.45
2022-10-28T12:57:43.870Z,4.35
2022-10-28T13:00:13.670Z,4.43
2022-10-28T13:02:56.410Z,3.97
2022-10-28T13:05:26.638Z,4.60
2022-10-28T13:08:25.012Z,3.67
2022-10-28T13:11:10.380Z,4.65
2022-10-28T13:13:49.685Z,3.97
2022-10-28T13:16:33.005Z,4.00
2022-10-28T13:19:26.537Z,4.32
2022-10-28T13:22:21.207Z,4.13
2022-10-28T13:25:20.669Z,4.45
2022-10-28T13:27:48.579Z,3.97
2022-10-28T13:30:19.573Z,4.30
2022-10-28T13:32:46.160Z,4.40
2022-10-28T13:35:24.233Z,4.57
2022-10-28T13:37:55.002Z,4.75
2022-10-28T13:40:30.798Z,3.78
2022-10-28T13:42:58.521Z,4.55
2022-10-28T13:45:45.010Z,4.38
2022-10-28T13:48:30.070Z,4.28
2022-10-28T13:51:11.600Z,3.70
2022-10-28T13:53:42.002Z,3.85
2022-10-28T13:56:12.470Z,4.55
2022-10-28T13:58:39.008Z,4.05
2022-10-28T14:01:40.846Z,3.53
2022-10-28T14:04:33.237Z,4.50
2022-10-28T14:07:01.499Z,4.03
2022-10-28T14:09:31.034Z,4.50
2022-10-28T14:12:24.506Z,4.35
2022-10-28T14:17:24.714Z,4.97
2022-10-28T14:19:52.544Z,5.53
2022-10-28T14:22:48.570Z,4.30
2022-10-28T14:25:44.978Z,4.40
2022-10-28T14:28:32.679Z,4.05
2022-10-28T14:31:08.648Z,4.50
2022-10-28T14:33:35.811Z,4.13
2022-10-28T14:36:17.732Z,4.47
2022-10-28T14:38:53.460Z,4.22
2022-10-28T14:42:01.655Z,4.70
2022-10-28T14:45:01.979Z,5.15
2022-10-28T14:47:46.477Z,4.40
2022-10-28T14:51:13.860Z,4.32
2022-10-28T15:04:06.440Z,4.18
2022-10-28T15:06:46.887Z,3.90
2022-10-28T15:10:19.131Z,4.25
2022-10-28T15:16:00.819Z,4.93
2022-10-28T15:18:49.766Z,4.60
2022-10-28T15:25:12.292Z,4.40
2022-10-28T15:27:41.634Z,4.47
2022-10-28T15:33:39.552Z,3.92
2022-10-28T15:46:58.791Z,5.22
2022-10-28T15:54:35.341Z,5.13
2022-10-28T15:57:01.994Z,4.65
2022-10-28T15:59:31.362Z,5.43
2022-10-28T16:01:59.657Z,5.93
2022-10-28T16:04:44.155Z,5.28
2022-10-28T16:07:11.255Z,5.75
2022-10-28T16:09:43.494Z,6.32
2022-10-28T16:12:19.134Z,6.00
2022-10-28T16:14:47.398Z,5.68
2022-10-28T16:17:19.478Z,5.70
2022-10-28T16:20:00.352Z,5.20
2022-10-28T16:22:28.935Z,4.85
2022-10-28T16:24:55.674Z,5.13
2022-10-28T16:27:27.800Z,4.97
2022-10-28T16:29:54.621Z,5.05
2022-10-28T16:32:31.822Z,5.32
2022-10-28T16:35:01.118Z,5.40
2022-10-28T16:37:29.696Z,5.38
2022-10-28T16:39:57.807Z,5.28
2022-10-28T16:42:25.044Z,5.32
2022-10-28T16:44:52.011Z,4.85
2022-10-28T16:47:21.233Z,5.75
2022-10-28T16:49:54.342Z,5.45
2022-10-28T16:52:29.904Z,4.75
2022-10-28T16:54:57.653Z,5.18
2022-10-28T16:59:56.148Z,5.43
2022-10-28T17:02:25.919Z,5.18
2022-10-28T17:04:52.643Z,5.40
2022-10-28T17:07:19.135Z,5.65
2022-10-28T17:09:45.913Z,5.72
2022-10-28T17:12:15.032Z,5.35
2022-10-28T17:14:41.656Z,5.88
2022-10-28T17:17:08.580Z,5.90
2022-10-28T17:19:35.315Z,6.35
2022-10-28T17:22:04.142Z,7.35
2022-10-28T17:24:34.296Z,6.18
2022-10-28T17:27:01.360Z,6.50
2022-10-28T17:29:28.054Z,6.38
2022-10-28T17:31:55.089Z,5.53
2022-10-28T17:34:21.792Z,5.78
2022-10-28T17:36:48.285Z,5.70
2022-10-28T17:39:18.648Z,5.60
2022-10-28T17:41:47.744Z,5.82
2022-10-28T17:44:18.456Z,5.40
2022-10-28T17:46:58.245Z,5.57
2022-10-28T17:49:25.371Z,6.63
2022-10-28T17:51:57.046Z,6.57
2022-10-28T17:54:25.978Z,6.03
2022-10-28T17:56:52.777Z,6.07
2022-10-28T17:59:19.439Z,6.32
2022-10-28T18:01:46.038Z,6.35
2022-10-28T18:04:12.730Z,6.72
2022-10-28T18:06:40.401Z,7.13
2022-10-28T18:09:11.697Z,7.90
2022-10-28T18:11:40.176Z,8.82
2022-10-28T18:14:07.091Z,9.75
2022-10-28T18:16:36.512Z,9.07
2022-10-28T18:19:05.468Z,9.52
2022-10-28T18:21:32.201Z,9.80
2022-10-28T18:24:03.956Z,9.43
2022-10-28T18:26:33.301Z,9.07
2022-10-28T18:29:03.972Z,9.32
2022-10-28T18:31:32.337Z,9.68
2022-10-28T18:34:01.668Z,10.77
2022-10-28T18:36:33.975Z,10.10
2022-10-28T18:39:01.650Z,10.40
2022-10-28T18:41:30.157Z,10.05
2022-10-28T18:43:58.838Z,10.20
2022-10-28T18:46:25.882Z,9.07
2022-10-28T18:48:52.725Z,8.25
2022-10-28T18:51:19.331Z,8.02
2022-10-28T18:53:47.728Z,9.43
2022-10-28T18:56:16.911Z,11.40
2022-10-28T18:58:49.600Z,16.20
2022-10-28T19:01:18.522Z,15.43
2022-10-28T19:03:45.338Z,14.98
2022-10-28T19:06:14.490Z,13.95
2022-10-28T19:08:41.098Z,9.65
2022-10-28T19:11:10.545Z,8.80
2022-10-28T19:13:39.090Z,8.13
2022-10-28T19:16:06.039Z,7.57
2022-10-28T19:18:36.691Z,7.90
2022-10-28T19:21:04.660Z,7.78
2022-10-28T19:23:32.549Z,7.72
2022-10-28T19:25:59.411Z,7.53
2022-10-28T19:28:26.221Z,7.30
2022-10-28T19:31:01.049Z,6.97
2022-10-28T19:33:29.034Z,6.63
2022-10-28T19:36:00.779Z,6.15
2022-10-28T19:38:40.030Z,6.05
2022-10-28T19:41:09.125Z,6.10
2022-10-28T19:43:36.038Z,6.80
2022-10-28T19:46:11.028Z,6.72
2022-10-28T19:48:38.996Z,8.30
2022-10-28T19:51:05.983Z,7.47
2022-10-28T19:53:32.665Z,7.47
2022-10-28T19:56:00.909Z,8.05
2022-10-28T19:58:28.337Z,9.80
2022-10-28T20:01:14.670Z,8.30
2022-10-28T20:03:45.016Z,7.57
2022-10-28T20:06:15.598Z,7.13
2022-10-28T20:08:43.802Z,6.70
2022-10-28T20:11:18.895Z,6.70
2022-10-28T20:13:52.057Z,6.90
2022-10-28T20:16:18.695Z,6.82
2022-10-28T20:18:45.252Z,6.75
2022-10-28T20:21:14.241Z,6.32
2022-10-28T20:23:45.174Z,7.57
2022-10-28T20:26:13.337Z,8.05
2022-10-28T20:28:40.341Z,8.30
2022-10-28T20:31:14.882Z,8.02
2022-10-28T20:33:43.132Z,7.55
2022-10-28T20:36:26.864Z,7.40
2022-10-28T20:38:55.271Z,8.25
2022-10-28T20:41:23.060Z,7.80
2022-10-28T20:43:51.672Z,7.43
2022-10-28T20:46:20.175Z,7.15
2022-10-28T20:48:47.696Z,7.30
2022-10-28T20:51:15.032Z,6.68
2022-10-28T20:53:42.089Z,6.28
2022-10-28T20:56:13.700Z,7.22
2022-10-28T20:58:40.308Z,6.43
2022-10-28T21:01:11.376Z,7.07
2022-10-28T21:03:40.221Z,7.25
2022-10-28T21:06:07.471Z,6.88
2022-10-28T21:08:34.450Z,6.20
2022-10-28T21:11:02.978Z,6.60
2022-10-28T21:13:30.123Z,6.50
2022-10-28T21:15:57.896Z,6.47
2022-10-28T21:18:25.232Z,5.63
2022-10-28T21:20:56.835Z,6.60
2022-10-28T21:23:24.111Z,5.93
2022-10-28T21:25:54.618Z,6.28
2022-10-28T21:28:21.706Z,6.88
2022-10-28T21:30:48.333Z,7.32
2022-10-28T21:33:18.939Z,6.43
2022-10-28T21:35:54.765Z,7.43
2022-10-28T21:38:21.443Z,6.88
2022-10-28T21:40:47.958Z,6.32
2022-10-28T21:43:15.664Z,6.13
2022-10-28T21:45:42.314Z,6.50
2022-10-28T21:48:08.821Z,6.18
2022-10-28T21:50:35.412Z,8.32
2022-10-28T21:53:04.035Z,7.93
2022-10-28T21:55:42.112Z,8.02
2022-10-28T21:58:13.715Z,8.55
2022-10-28T22:00:40.292Z,8.25
2022-10-28T22:03:06.783Z,9.63
2022-10-28T22:05:33.533Z,10.00
2022-10-28T22:08:03.080Z,9.02
2022-10-28T22:10:31.504Z,9.35
2022-10-28T22:12:58.130Z,9.10
2022-10-28T22:15:24.681Z,8.85
2022-10-28T22:17:51.220Z,7.93
2022-10-28T22:20:17.830Z,8.10
2022-10-28T22:22:44.380Z,7.65
2022-10-28T22:25:11.177Z,7.13
2022-10-28T22:27:37.781Z,7.25
2022-10-28T22:30:05.146Z,7.63
2022-10-28T22:32:31.815Z,7.68
2022-10-28T22:34:58.689Z,7.50
2022-10-28T22:37:26.560Z,8.40
2022-10-28T22:39:53.109Z,8.13
2022-10-28T22:42:20.418Z,7.60
2022-10-28T22:44:47.023Z,6.50
2022-10-28T22:47:15.713Z,7.15
2022-10-28T22:49:42.268Z,7.20
2022-10-28T22:52:08.853Z,6.22
2022-10-28T22:54:35.437Z,6.82
2022-10-28T22:57:02.223Z,7.37
2022-10-28T22:59:28.690Z,7.05
2022-10-28T23:01:55.253Z,7.45
2022-10-28T23:04:21.958Z,6.80
2022-10-28T23:06:48.491Z,6.25
2022-10-28T23:09:15.061Z,6.82
2022-10-28T23:11:41.634Z,6.57
2022-10-28T23:14:08.238Z,6.50
2022-10-28T23:16:34.768Z,5.38
2022-10-28T23:19:01.371Z,6.70
2022-10-28T23:21:27.935Z,5.78
2022-10-28T23:23:56.176Z,6.93
2022-10-28T23:26:23.245Z,6.72
2022-10-28T23:28:54.628Z,7.93
2022-10-28T23:31:21.739Z,7.13
2022-10-28T23:33:48.472Z,6.80
2022-10-28T23:36:15.714Z,7.88
2022-10-28T23:38:42.792Z,7.07
2022-10-28T23:41:11.637Z,6.43
2022-10-28T23:43:38.506Z,6.53
2022-10-28T23:46:05.591Z,6.80
2022-10-28T23:48:32.179Z,6.22
2022-10-28T23:50:59.045Z,6.38
2022-10-28T23:53:26.108Z,6.28
2022-10-28T23:55:53.167Z,6.90
2022-10-28T23:58:21.400Z,6.18
